Time;durP1;ratioP1;P1;durP2;ratioP2;P2;SDS_P1;SDS_P2;PMS_P1;PMS_P2;Temp;Humidity;BMP_temperature;BMP_pressure;BME280_temperature;BME280_humidity;BME280_pressure;Samples;Min_cycle;Max_cycle;Signal;HPM_P1;HPM_P2
2023/12/24 00:01:32;;;;;;;1.10;0.50;;;6.90;99.90;;;;;;5000120;28;20551;-65
2023/12/24 00:03:57;;;;;;;1.03;0.50;;;6.90;99.90;;;;;;5013694;28;20194;-65
2023/12/24 00:06:23;;;;;;;1.00;0.40;;;7.00;99.90;;;;;;5017861;28;20834;-65
2023/12/24 00:08:49;;;;;;;1.10;0.47;;;7.40;99.90;;;;;;5022430;28;20188;-65
2023/12/24 00:11:15;;;;;;;1.20;0.50;;;7.30;99.90;;;;;;5023986;28;20214;-62
2023/12/24 00:13:40;;;;;;;1.63;0.77;;;7.20;99.90;;;;;;5012098;28;20949;-62
2023/12/24 00:16:06;;;;;;;1.37;0.50;;;6.90;99.90;;;;;;5017906;28;20187;-65
2023/12/24 00:18:32;;;;;;;1.17;0.50;;;7.20;99.90;;;;;;5011757;28;20191;-65
2023/12/24 00:20:57;;;;;;;1.20;0.50;;;7.40;99.90;;;;;;5020140;28;20182;-66
2023/12/24 00:23:23;;;;;;;1.00;0.40;;;7.20;99.90;;;;;;5011246;28;20671;-67
2023/12/24 00:25:48;;;;;;;3.63;0.77;;;7.40;99.90;;;;;;5010836;28;20187;-67
2023/12/24 00:28:14;;;;;;;1.10;0.40;;;6.90;99.90;;;;;;5008670;28;20579;-64
2023/12/24 00:30:39;;;;;;;1.30;0.50;;;7.20;99.90;;;;;;5008652;28;20190;-64
2023/12/24 00:33:05;;;;;;;1.00;0.40;;;7.60;99.90;;;;;;5023972;28;20221;-64
2023/12/24 00:35:32;;;;;;;1.67;0.77;;;7.20;99.90;;;;;;5016699;28;21011;-64
2023/12/24 00:37:58;;;;;;;1.17;0.50;;;7.40;99.90;;;;;;5013276;28;20186;-67
2023/12/24 00:40:24;;;;;;;1.37;0.50;;;7.40;99.90;;;;;;5020078;28;20414;-67
2023/12/24 00:42:50;;;;;;;3.63;0.60;;;7.30;99.90;;;;;;5024931;28;20191;-64
2023/12/24 00:45:15;;;;;;;1.30;0.53;;;7.00;99.90;;;;;;5006980;28;20476;-62
2023/12/24 00:47:41;;;;;;;1.10;0.50;;;7.00;99.90;;;;;;5001891;28;20196;-62
2023/12/24 00:50:07;;;;;;;1.37;0.50;;;7.50;99.90;;;;;;5026091;28;20257;-62
2023/12/24 00:52:34;;;;;;;1.30;0.70;;;7.10;99.90;;;;;;5001356;28;20214;-62
2023/12/24 00:54:59;;;;;;;1.10;0.43;;;6.90;99.90;;;;;;5025100;28;20440;-62
2023/12/24 00:57:25;;;;;;;1.00;0.40;;;7.20;99.90;;;;;;5032602;28;20960;-65
2023/12/24 00:59:50;;;;;;;1.00;0.50;;;7.00;99.90;;;;;;5034615;28;20178;-66
2023/12/24 01:02:16;;;;;;;1.10;0.50;;;7.10;99.90;;;;;;5018720;28;20581;-65
2023/12/24 01:04:42;;;;;;;1.30;0.60;;;7.10;99.90;;;;;;5034565;28;20195;-65
2023/12/24 01:07:07;;;;;;;1.20;0.50;;;6.90;99.90;;;;;;5017345;28;20324;-66
2023/12/24 01:09:35;;;;;;;1.30;0.57;;;6.90;99.90;;;;;;5034182;28;20624;-65
2023/12/24 01:12:00;;;;;;;1.50;0.50;;;7.20;99.90;;;;;;5016717;28;20206;-65
2023/12/24 01:14:26;;;;;;;2.20;0.57;;;7.80;99.90;;;;;;5021628;28;20902;-65
2023/12/24 01:16:51;;;;;;;1.63;0.70;;;7.00;99.90;;;;;;5012646;28;20270;-65
2023/12/24 01:19:16;;;;;;;1.27;0.50;;;7.00;99.90;;;;;;5027836;28;20190;-65
2023/12/24 01:21:42;;;;;;;1.20;0.50;;;6.90;99.90;;;;;;5033286;28;20222;-65
2023/12/24 01:24:07;;;;;;;2.17;0.70;;;7.00;99.90;;;;;;5033968;28;21064;-65
2023/12/24 01:26:36;;;;;;;1.70;0.70;;;7.00;99.90;;;;;;5000441;28;20199;-63
2023/12/24 01:29:03;;;;;;;1.00;0.50;;;7.40;99.90;;;;;;5026580;28;20573;-62
2023/12/24 01:31:28;;;;;;;1.20;0.60;;;7.10;99.90;;;;;;5020522;28;20548;-62
2023/12/24 01:33:54;;;;;;;4.27;0.70;;;7.00;99.90;;;;;;5034107;28;20512;-62
2023/12/24 01:36:19;;;;;;;1.57;0.73;;;7.00;99.90;;;;;;5006994;28;20546;-62
2023/12/24 01:38:46;;;;;;;1.33;0.60;;;7.60;99.90;;;;;;5032576;28;20182;-63
2023/12/24 01:41:12;;;;;;;1.30;0.60;;;7.70;99.90;;;;;;5001112;28;20202;-62
2023/12/24 01:43:40;;;;;;;1.10;0.60;;;7.30;99.90;;;;;;5014489;28;20418;-62
2023/12/24 01:46:05;;;;;;;1.20;0.50;;;7.30;99.90;;;;;;5019643;28;20429;-62
2023/12/24 01:48:31;;;;;;;1.53;0.80;;;7.10;99.90;;;;;;5020471;28;20445;-63
2023/12/24 01:50:57;;;;;;;1.80;0.60;;;7.50;99.90;;;;;;5030701;28;20190;-63
2023/12/24 01:53:22;;;;;;;1.30;0.60;;;7.40;99.90;;;;;;5020522;28;20187;-66
2023/12/24 01:55:48;;;;;;;3.73;0.63;;;7.00;99.90;;;;;;5024657;28;20241;-65
2023/12/24 01:58:15;;;;;;;2.90;0.80;;;7.80;99.90;;;;;;5025876;28;20272;-66
2023/12/24 02:00:41;;;;;;;1.57;0.50;;;7.10;99.90;;;;;;5013730;28;20189;-65
2023/12/24 02:03:08;;;;;;;1.50;0.63;;;7.70;99.90;;;;;;5024744;28;20459;-65
2023/12/24 02:05:35;;;;;;;1.60;0.67;;;7.40;99.90;;;;;;5026145;28;20438;-65
2023/12/24 02:08:02;;;;;;;1.10;0.50;;;7.10;99.90;;;;;;5023643;28;20429;-65
2023/12/24 02:10:29;;;;;;;1.10;0.50;;;7.10;99.90;;;;;;5031327;28;20877;-66
2023/12/24 02:12:54;;;;;;;11.70;0.90;;;7.00;99.90;;;;;;5033026;28;20929;-65
2023/12/24 02:15:20;;;;;;;1.30;0.50;;;7.10;99.90;;;;;;5025863;28;20437;-65
2023/12/24 02:17:46;;;;;;;1.53;0.50;;;7.50;99.90;;;;;;5007797;28;20219;-65
2023/12/24 02:20:11;;;;;;;1.20;0.70;;;7.10;99.90;;;;;;5032585;28;20228;-65
2023/12/24 02:22:37;;;;;;;2.57;0.80;;;;;;;;;;5017569;28;20422;-65
2023/12/24 02:25:04;;;;;;;1.53;0.50;;;7.00;99.90;;;;;;5024225;28;20218;-65
2023/12/24 02:27:39;;;;;;;1.10;0.50;;;7.10;99.90;;;;;;5010559;28;20221;-65
2023/12/24 02:30:11;;;;;;;2.63;0.67;;;;;;;;;;5010741;28;20433;-65
2023/12/24 02:32:38;;;;;;;1.20;0.60;;;7.20;99.90;;;;;;5029199;28;20465;-63
2023/12/24 02:35:05;;;;;;;1.70;0.80;;;7.10;99.90;;;;;;5032731;28;20437;-62
2023/12/24 02:37:31;;;;;;;1.20;0.50;;;;;;;;;;5014507;28;21064;-65
2023/12/24 02:39:57;;;;;;;1.30;0.50;;;;;;;;;;5008267;28;20426;-65
2023/12/24 02:42:23;;;;;;;1.27;0.57;;;;;;;;;;5022501;28;20219;-62
2023/12/24 02:44:49;;;;;;;3.23;0.80;;;;;;;;;;5021591;28;20425;-62
2023/12/24 02:47:15;;;;;;;1.57;0.80;;;;;;;;;;5015117;28;20426;-63
2023/12/24 02:49:41;;;;;;;1.27;0.53;;;7.10;99.90;;;;;;5023251;28;20199;-62
2023/12/24 02:52:07;;;;;;;1.10;0.50;;;;;;;;;;5031588;28;20213;-62
2023/12/24 02:54:32;;;;;;;1.30;0.70;;;7.20;99.90;;;;;;5022384;28;20261;-62
2023/12/24 02:56:57;;;;;;;1.83;0.80;;;8.00;99.90;;;;;;5017917;28;20468;-65
2023/12/24 02:59:26;;;;;;;1.10;0.50;;;7.00;99.90;;;;;;5017809;28;20650;-65
2023/12/24 03:01:51;;;;;;;1.20;0.60;;;8.60;99.90;;;;;;5015507;28;20553;-65
2023/12/24 03:04:17;;;;;;;1.10;0.50;;;7.10;99.90;;;;;;5021514;28;20488;-65
2023/12/24 03:06:42;;;;;;;1.10;0.50;;;9.40;99.90;;;;;;5011745;28;20194;-65
2023/12/24 03:09:10;;;;;;;1.10;0.57;;;7.40;99.90;;;;;;5032055;28;20186;-65
2023/12/24 03:11:35;;;;;;;1.20;0.60;;;7.40;99.90;;;;;;5031925;28;20293;-65
2023/12/24 03:14:01;;;;;;;2.13;0.93;;;8.30;99.90;;;;;;5022185;28;20516;-65
2023/12/24 03:16:26;;;;;;;1.30;0.50;;;8.70;99.90;;;;;;5011630;28;20172;-65
2023/12/24 03:18:52;;;;;;;2.23;1.07;;;8.40;99.90;;;;;;5009750;28;20194;-65
2023/12/24 03:21:17;;;;;;;1.40;0.80;;;7.70;99.90;;;;;;5020889;28;20266;-65
2023/12/24 03:23:43;;;;;;;1.40;0.70;;;7.60;99.90;;;;;;5020101;28;20190;-65
2023/12/24 03:26:21;;;;;;;1.20;0.60;;;7.20;99.90;;;;;;5026588;28;20191;-62
2023/12/24 03:28:51;;;;;;;3.17;0.73;;;7.10;99.90;;;;;;5009201;28;20241;-62
2023/12/24 03:31:17;;;;;;;1.70;0.63;;;7.20;99.90;;;;;;5016212;28;20829;-62
2023/12/24 03:33:42;;;;;;;1.30;0.73;;;7.10;99.90;;;;;;5031584;28;20445;-62
2023/12/24 03:36:09;;;;;;;1.30;0.60;;;7.10;99.90;;;;;;5025166;28;20428;-65
2023/12/24 03:38:35;;;;;;;1.40;0.70;;;7.80;99.90;;;;;;5011919;28;20194;-65
2023/12/24 03:41:00;;;;;;;1.33;0.80;;;7.10;99.90;;;;;;5014134;28;20426;-65
2023/12/24 03:43:26;;;;;;;1.40;0.80;;;7.10;99.90;;;;;;5026615;28;20419;-63
2023/12/24 03:45:51;;;;;;;1.10;0.50;;;8.70;99.90;;;;;;5012778;28;20266;-63
2023/12/24 03:48:16;;;;;;;1.63;0.80;;;9.00;99.90;;;;;;5025876;28;20450;-65
2023/12/24 03:50:43;;;;;;;1.20;0.60;;;8.60;99.90;;;;;;5011768;28;20218;-65
2023/12/24 03:53:08;;;;;;;1.30;0.80;;;8.20;99.90;;;;;;5031289;28;20222;-63
2023/12/24 03:55:34;;;;;;;1.47;0.73;;;7.10;99.90;;;;;;5012051;28;20473;-63
2023/12/24 03:57:59;;;;;;;1.63;0.67;;;7.60;99.90;;;;;;5017771;28;20235;-65
2023/12/24 04:00:25;;;;;;;4.40;0.77;;;8.90;99.90;;;;;;5025111;28;20225;-65
2023/12/24 04:02:52;;;;;;;2.63;0.77;;;8.20;99.90;;;;;;5010395;28;20333;-65
2023/12/24 04:05:17;;;;;;;1.50;0.60;;;7.70;99.90;;;;;;5024405;28;20287;-64
2023/12/24 04:07:43;;;;;;;1.20;0.50;;;7.80;99.90;;;;;;5007444;28;20522;-65
2023/12/24 04:10:09;;;;;;;3.30;1.23;;;7.80;99.90;;;;;;5011674;28;20191;-65
2023/12/24 04:12:35;;;;;;;5.53;0.90;;;7.10;99.90;;;;;;5011812;28;20268;-67
2023/12/24 04:15:00;;;;;;;1.93;0.70;;;7.70;99.90;;;;;;5032246;28;20186;-67
2023/12/24 04:17:26;;;;;;;1.20;0.60;;;7.90;99.90;;;;;;5022758;28;20429;-67
2023/12/24 04:19:51;;;;;;;1.10;0.60;;;7.60;99.90;;;;;;5016216;28;20253;-67
2023/12/24 04:22:17;;;;;;;2.07;0.80;;;8.70;99.90;;;;;;5023451;28;20186;-67
2023/12/24 04:24:42;;;;;;;1.60;0.53;;;7.10;99.90;;;;;;5019177;28;20753;-67
2023/12/24 04:27:08;;;;;;;1.23;0.40;;;7.10;99.90;;;;;;5024067;28;20277;-67
2023/12/24 04:29:33;;;;;;;2.47;0.93;;;8.50;99.90;;;;;;5028402;28;20191;-67
2023/12/24 04:31:59;;;;;;;3.47;0.60;;;7.60;99.90;;;;;;5026161;28;20673;-64
2023/12/24 04:34:24;;;;;;;1.20;0.50;;;7.10;99.90;;;;;;5014083;28;20188;-64
2023/12/24 04:36:50;;;;;;;1.47;0.57;;;7.70;99.90;;;;;;5022691;28;20642;-64
2023/12/24 04:39:16;;;;;;;1.40;0.60;;;7.40;99.90;;;;;;5003937;28;20275;-64
2023/12/24 04:41:42;;;;;;;1.10;0.50;;;7.10;99.90;;;;;;5024009;28;20189;-67
2023/12/24 04:44:07;;;;;;;1.33;0.60;;;7.10;99.90;;;;;;5008489;28;20418;-67
2023/12/24 04:46:40;;;;;;;1.10;0.50;;;8.20;99.90;;;;;;5021466;28;20182;-67
2023/12/24 04:49:05;;;;;;;1.10;0.50;;;8.20;99.90;;;;;;5018854;28;20197;-67
2023/12/24 04:51:31;;;;;;;1.30;0.63;;;8.30;99.90;;;;;;5022296;28;20825;-64
2023/12/24 04:53:56;;;;;;;1.10;0.50;;;8.30;99.90;;;;;;5016536;28;20270;-64
2023/12/24 04:56:23;;;;;;;1.20;0.60;;;7.10;99.90;;;;;;5034307;28;20524;-66
2023/12/24 04:58:49;;;;;;;1.10;0.53;;;7.70;99.90;;;;;;5033624;28;20210;-67
2023/12/24 05:01:16;;;;;;;1.83;0.50;;;7.20;99.90;;;;;;5022873;28;20457;-67
2023/12/24 05:03:42;;;;;;;1.57;0.60;;;7.10;99.90;;;;;;5030542;28;20180;-67
2023/12/24 05:06:07;;;;;;;1.10;0.50;;;7.60;99.90;;;;;;5017077;28;20422;-64
2023/12/24 05:08:33;;;;;;;1.20;0.60;;;7.30;99.90;;;;;;5014554;28;20198;-65
2023/12/24 05:11:04;;;;;;;1.10;0.50;;;7.30;99.90;;;;;;5014460;28;20183;-64
2023/12/24 05:13:29;;;;;;;1.97;0.60;;;6.70;99.90;;;;;;5028881;28;20705;-67
2023/12/24 05:15:55;;;;;;;4.10;0.60;;;6.80;99.90;;;;;;5022126;28;20461;-67
2023/12/24 05:18:20;;;;;;;1.37;0.50;;;6.70;99.90;;;;;;5019819;28;20190;-67
2023/12/24 05:20:46;;;;;;;3.97;0.70;;;7.20;99.90;;;;;;5021357;28;20187;-67
2023/12/24 05:23:11;;;;;;;2.23;0.80;;;7.60;99.90;;;;;;5017965;28;20194;-67
2023/12/24 05:25:37;;;;;;;1.97;0.60;;;7.40;99.90;;;;;;5033894;28;20625;-67
2023/12/24 05:28:02;;;;;;;1.20;0.60;;;6.70;99.90;;;;;;5025997;28;20194;-67
2023/12/24 05:30:28;;;;;;;1.40;0.80;;;6.60;99.90;;;;;;5025870;28;20194;-67
2023/12/24 05:32:53;;;;;;;1.20;0.60;;;7.20;99.90;;;;;;5027567;28;20207;-67
2023/12/24 05:35:19;;;;;;;1.97;0.93;;;7.30;99.90;;;;;;5008290;28;20186;-67
2023/12/24 05:37:46;;;;;;;1.10;0.50;;;7.20;99.90;;;;;;5014017;28;20301;-67
2023/12/24 05:40:12;;;;;;;1.50;0.60;;;6.50;99.90;;;;;;5014046;28;20579;-67
2023/12/24 05:42:37;;;;;;;1.13;0.53;;;6.80;99.90;;;;;;5013939;28;20557;-67
2023/12/24 05:45:04;;;;;;;1.57;0.50;;;6.70;99.90;;;;;;5014303;28;20634;-67
2023/12/24 05:47:29;;;;;;;1.30;0.60;;;6.50;99.90;;;;;;5013726;28;20274;-67
2023/12/24 05:49:55;;;;;;;1.20;0.57;;;7.30;99.90;;;;;;5020177;28;20564;-67
2023/12/24 05:52:20;;;;;;;1.33;0.50;;;7.00;99.90;;;;;;5013239;28;20207;-67
2023/12/24 05:54:46;;;;;;;1.87;0.60;;;7.40;99.90;;;;;;5019307;28;20190;-67
2023/12/24 05:57:11;;;;;;;1.17;0.60;;;7.50;99.90;;;;;;5023172;28;20229;-67
2023/12/24 05:59:37;;;;;;;1.10;0.50;;;6.70;99.90;;;;;;5032703;28;20650;-67
2023/12/24 06:02:03;;;;;;;1.10;0.67;;;7.60;99.90;;;;;;5032342;28;20196;-67
2023/12/24 06:04:28;;;;;;;1.30;0.60;;;6.70;99.90;;;;;;5019226;28;20260;-67
2023/12/24 06:06:54;;;;;;;1.00;0.40;;;7.50;99.90;;;;;;5010811;28;20305;-64
2023/12/24 06:09:19;;;;;;;1.00;0.50;;;7.70;99.90;;;;;;5022102;28;20654;-63
2023/12/24 06:11:44;;;;;;;1.30;0.63;;;7.80;99.90;;;;;;5029078;28;20214;-67
2023/12/24 06:14:10;;;;;;;1.50;0.60;;;7.50;99.90;;;;;;5022337;28;20215;-67
2023/12/24 06:16:35;;;;;;;1.30;0.70;;;7.40;99.90;;;;;;5022701;28;20175;-64
2023/12/24 06:19:01;;;;;;;1.10;0.50;;;7.10;99.90;;;;;;5012371;28;20706;-64
2023/12/24 06:21:26;;;;;;;1.97;0.67;;;6.90;99.90;;;;;;5020668;28;20183;-67
2023/12/24 06:23:52;;;;;;;1.20;0.60;;;7.70;99.90;;;;;;5021624;28;20377;-67
2023/12/24 06:26:18;;;;;;;2.43;0.67;;;7.70;99.90;;;;;;5027549;28;20183;-67
2023/12/24 06:28:43;;;;;;;1.37;0.60;;;7.90;99.90;;;;;;5012547;28;20270;-67
2023/12/24 06:31:09;;;;;;;1.83;0.50;;;7.50;99.90;;;;;;5014212;28;20179;-67
2023/12/24 06:33:35;;;;;;;1.30;0.60;;;6.90;99.90;;;;;;5032015;28;20615;-67
2023/12/24 06:36:00;;;;;;;1.10;0.60;;;7.60;99.90;;;;;;5013482;28;20426;-67
2023/12/24 06:38:26;;;;;;;2.90;0.60;;;7.80;99.90;;;;;;5017392;28;20587;-67
2023/12/24 06:40:51;;;;;;;3.33;1.47;;;7.70;99.90;;;;;;5015172;28;20190;-67
2023/12/24 06:43:17;;;;;;;1.33;0.60;;;7.70;99.90;;;;;;5017253;28;20519;-67
2023/12/24 06:45:43;;;;;;;1.10;0.50;;;7.30;99.90;;;;;;5025670;28;20182;-68
2023/12/24 06:48:09;;;;;;;2.33;0.60;;;6.80;99.90;;;;;;5031846;28;20253;-67
2023/12/24 06:50:35;;;;;;;1.00;0.50;;;7.60;99.90;;;;;;5013634;28;20186;-67
2023/12/24 06:53:01;;;;;;;1.20;0.50;;;8.00;99.90;;;;;;5022162;28;20506;-67
2023/12/24 06:55:26;;;;;;;1.60;0.87;;;6.90;99.90;;;;;;5014147;28;20254;-67
2023/12/24 06:57:52;;;;;;;1.10;0.50;;;7.40;99.90;;;;;;4982951;28;1019191;-67
2023/12/24 07:00:18;;;;;;;1.50;0.80;;;7.60;99.90;;;;;;5012478;28;20186;-67
2023/12/24 07:02:43;;;;;;;5.00;1.07;;;7.00;99.90;;;;;;5020482;28;20825;-64
2023/12/24 07:05:09;;;;;;;1.37;0.70;;;8.00;99.90;;;;;;5013663;28;20190;-64
2023/12/24 07:07:34;;;;;;;1.33;0.80;;;7.90;99.90;;;;;;5031748;28;20235;-64
2023/12/24 07:10:00;;;;;;;4.60;0.57;;;8.10;99.90;;;;;;5028529;28;20623;-64
2023/12/24 07:12:27;;;;;;;1.40;0.57;;;8.10;99.90;;;;;;5017861;28;20217;-67
2023/12/24 07:14:53;;;;;;;2.13;0.70;;;8.10;99.90;;;;;;5015599;28;20180;-67
2023/12/24 07:17:18;;;;;;;1.30;0.60;;;8.00;99.90;;;;;;5006220;28;20468;-67
2023/12/24 07:19:44;;;;;;;1.87;0.80;;;7.90;99.90;;;;;;5025761;28;20214;-67
2023/12/24 07:22:09;;;;;;;1.00;0.50;;;8.20;99.90;;;;;;5014902;28;20568;-64
2023/12/24 07:24:36;;;;;;;1.30;0.50;;;8.20;99.90;;;;;;5013069;28;20433;-64
2023/12/24 07:27:01;;;;;;;1.40;0.60;;;8.50;99.90;;;;;;5009974;28;20180;-67
2023/12/24 07:29:26;;;;;;;1.67;0.70;;;7.10;99.90;;;;;;5012239;28;21071;-67
2023/12/24 07:31:52;;;;;;;1.00;0.50;;;8.00;99.90;;;;;;5019916;28;20292;-67
2023/12/24 07:34:18;;;;;;;1.53;0.63;;;7.80;99.90;;;;;;5012240;28;20191;-67
2023/12/24 07:36:44;;;;;;;1.10;0.40;;;8.10;99.90;;;;;;5007960;28;20191;-67
2023/12/24 07:39:10;;;;;;;1.00;0.40;;;7.40;99.90;;;;;;5019960;28;20469;-67
2023/12/24 07:41:35;;;;;;;4.20;0.60;;;7.90;99.90;;;;;;5018948;28;20205;-67
2023/12/24 07:44:01;;;;;;;1.00;0.40;;;7.70;99.90;;;;;;5008540;28;20414;-67
2023/12/24 07:46:26;;;;;;;1.10;0.53;;;7.70;99.90;;;;;;5017611;28;20202;-64
2023/12/24 07:48:52;;;;;;;1.73;0.60;;;8.40;99.90;;;;;;5028193;28;20624;-64
2023/12/24 07:51:17;;;;;;;1.20;0.70;;;7.90;99.90;;;;;;5015437;28;20615;-67
2023/12/24 07:53:43;;;;;;;1.90;0.87;;;8.00;99.90;;;;;;5015705;28;20189;-67
2023/12/24 07:56:08;;;;;;;1.00;0.40;;;8.10;99.90;;;;;;5015507;28;20187;-64
2023/12/24 07:58:34;;;;;;;1.70;0.50;;;8.10;99.90;;;;;;5015308;28;20218;-64
2023/12/24 08:00:59;;;;;;;1.00;0.40;;;7.20;99.90;;;;;;5024238;28;20632;-64
2023/12/24 08:03:25;;;;;;;3.30;0.70;;;7.80;99.90;;;;;;5025969;28;20199;-64
2023/12/24 08:05:51;;;;;;;1.00;0.40;;;7.80;99.90;;;;;;5011218;28;20183;-64
2023/12/24 08:08:16;;;;;;;1.30;0.60;;;8.10;99.90;;;;;;5028248;28;20205;-64
2023/12/24 08:10:42;;;;;;;2.07;0.60;;;7.70;99.90;;;;;;5035635;28;20183;-64
2023/12/24 08:13:07;;;;;;;1.00;0.40;;;8.00;99.90;;;;;;5035475;28;20657;-67
2023/12/24 08:15:33;;;;;;;1.30;0.53;;;8.10;99.90;;;;;;5035457;28;20178;-67
2023/12/24 08:17:58;;;;;;;1.40;0.50;;;7.90;99.90;;;;;;5018694;28;20809;-64
2023/12/24 08:20:24;;;;;;;1.47;0.70;;;7.80;99.90;;;;;;5019862;28;20198;-64
2023/12/24 08:22:49;;;;;;;1.10;0.50;;;8.40;99.90;;;;;;5019659;28;20183;-67
2023/12/24 08:25:15;;;;;;;1.00;0.40;;;7.50;99.90;;;;;;5025727;28;20592;-67
2023/12/24 08:27:41;;;;;;;1.00;0.40;;;7.60;99.90;;;;;;5015510;28;20325;-64
2023/12/24 08:30:08;;;;;;;1.00;0.40;;;7.90;99.90;;;;;;5011699;28;20195;-64
2023/12/24 08:32:33;;;;;;;1.00;0.40;;;7.50;99.90;;;;;;5019716;28;21270;-68
2023/12/24 08:34:59;;;;;;;1.20;0.50;;;8.50;99.90;;;;;;5009977;28;20435;-68
2023/12/24 08:37:24;;;;;;;2.07;0.60;;;7.60;99.90;;;;;;5014457;28;20191;-68
2023/12/24 08:39:50;;;;;;;1.67;0.60;;;8.80;99.90;;;;;;5012265;28;20272;-68
2023/12/24 08:42:15;;;;;;;1.00;0.40;;;8.40;99.90;;;;;;5024968;28;20798;-68
2023/12/24 08:44:41;;;;;;;1.00;0.40;;;8.50;99.90;;;;;;5009079;28;20190;-68
2023/12/24 08:47:06;;;;;;;1.00;0.40;;;8.40;99.90;;;;;;5023729;28;20495;-68
2023/12/24 08:49:32;;;;;;;1.00;0.40;;;8.40;99.90;;;;;;5021123;28;20179;-68
2023/12/24 08:51:57;;;;;;;1.00;0.50;;;8.20;99.90;;;;;;5019845;28;20643;-68
2023/12/24 08:54:24;;;;;;;1.10;0.50;;;8.70;99.90;;;;;;5025778;28;20193;-68
2023/12/24 08:56:50;;;;;;;1.37;0.63;;;7.80;99.90;;;;;;5020027;28;20270;-64
2023/12/24 08:59:15;;;;;;;1.43;0.60;;;8.60;99.90;;;;;;5019036;28;20945;-64
2023/12/24 09:01:41;;;;;;;1.30;0.60;;;8.40;99.90;;;;;;5010800;28;20200;-64
2023/12/24 09:04:07;;;;;;;1.23;0.50;;;8.50;99.90;;;;;;4999099;28;20194;-64
2023/12/24 09:06:33;;;;;;;1.00;0.40;;;8.40;99.90;;;;;;5011239;28;20218;-64
2023/12/24 09:08:58;;;;;;;1.20;0.50;;;8.70;99.90;;;;;;5006809;28;20453;-64
2023/12/24 09:11:24;;;;;;;1.20;0.60;;;8.50;99.90;;;;;;5004801;28;20242;-68
2023/12/24 09:13:49;;;;;;;3.50;1.20;;;8.80;99.90;;;;;;5009530;28;20187;-68
2023/12/24 09:16:15;;;;;;;1.20;0.50;;;7.80;99.90;;;;;;5012361;28;20179;-68
2023/12/24 09:18:40;;;;;;;1.70;0.50;;;7.90;99.90;;;;;;5014183;28;20258;-68
2023/12/24 09:21:06;;;;;;;1.30;0.63;;;8.40;99.90;;;;;;5023163;28;20193;-68
2023/12/24 09:23:31;;;;;;;1.30;0.50;;;8.70;99.90;;;;;;5014740;28;20191;-64
2023/12/24 09:25:57;;;;;;;1.20;0.60;;;8.30;99.90;;;;;;5022386;28;20216;-64
2023/12/24 09:28:22;;;;;;;1.00;0.40;;;8.90;99.90;;;;;;5014304;28;20187;-65
2023/12/24 09:30:48;;;;;;;1.27;0.67;;;8.30;99.90;;;;;;5013695;28;20195;-65
2023/12/24 09:33:14;;;;;;;1.10;0.50;;;8.50;99.90;;;;;;5023556;28;20651;-65
2023/12/24 09:35:41;;;;;;;1.10;0.40;;;8.60;99.90;;;;;;4997912;28;20477;-64
2023/12/24 09:38:07;;;;;;;1.20;0.50;;;8.30;99.90;;;;;;5005043;28;20578;-68
2023/12/24 09:40:32;;;;;;;1.27;0.60;;;8.70;99.90;;;;;;5014826;28;20499;-68
2023/12/24 09:42:58;;;;;;;2.40;0.60;;;8.70;99.90;;;;;;5017634;28;20201;-68
2023/12/24 09:45:24;;;;;;;1.30;0.60;;;9.50;99.90;;;;;;5012319;28;20649;-68
2023/12/24 09:47:49;;;;;;;1.70;0.70;;;8.40;99.90;;;;;;5013745;28;20433;-68
2023/12/24 09:50:15;;;;;;;1.20;0.50;;;8.50;99.90;;;;;;5012901;28;20566;-68
2023/12/24 09:52:42;;;;;;;1.37;0.40;;;8.00;99.90;;;;;;5021101;28;20198;-68
2023/12/24 09:55:08;;;;;;;1.20;0.50;;;8.80;99.90;;;;;;5018221;28;20415;-68
2023/12/24 09:57:33;;;;;;;1.10;0.50;;;8.00;99.90;;;;;;5019161;28;20461;-68
2023/12/24 09:59:59;;;;;;;1.20;0.50;;;9.30;99.90;;;;;;5013354;28;20536;-68
2023/12/24 10:02:24;;;;;;;1.10;0.50;;;8.80;99.90;;;;;;5009575;28;20598;-68
2023/12/24 10:04:50;;;;;;;1.07;0.50;;;8.10;99.90;;;;;;5012506;28;20203;-68
2023/12/24 10:07:15;;;;;;;1.13;0.57;;;8.60;99.90;;;;;;5008702;28;20743;-68
2023/12/24 10:09:52;;;;;;;1.10;0.50;;;8.00;99.90;;;;;;5019321;28;20191;-68
2023/12/24 10:12:18;;;;;;;1.10;0.60;;;8.00;99.90;;;;;;5016697;28;20194;-65
2023/12/24 10:14:58;;;;;;;5.60;0.70;;;8.70;99.90;;;;;;5016517;28;20466;-64
2023/12/24 10:17:28;;;;;;;1.70;0.50;;;8.30;99.90;;;;;;5013426;28;21240;-68
2023/12/24 10:19:55;;;;;;;1.30;0.70;;;8.10;99.90;;;;;;5014189;28;20433;-68
2023/12/24 10:22:23;;;;;;;1.73;0.50;;;8.50;99.90;;;;;;5020160;28;20902;-65
2023/12/24 10:24:49;;;;;;;1.00;0.40;;;9.30;99.90;;;;;;5024233;28;20465;-64
2023/12/24 10:27:15;;;;;;;1.23;0.60;;;9.40;99.90;;;;;;5018868;28;20458;-64
2023/12/24 10:29:42;;;;;;;1.03;0.40;;;8.70;99.90;;;;;;5025805;28;20179;-65
2023/12/24 10:32:11;;;;;;;2.80;0.60;;;8.40;99.90;;;;;;5025101;28;20460;-67
2023/12/24 10:34:37;;;;;;;1.03;0.43;;;8.30;99.90;;;;;;5008780;28;20509;-67
2023/12/24 10:37:21;;;;;;;2.17;0.63;;;9.20;99.90;;;;;;5011363;28;20541;-65
2023/12/24 10:39:46;;;;;;;2.03;0.47;;;8.90;99.90;;;;;;4995474;28;20190;-64
2023/12/24 10:42:12;;;;;;;1.30;0.60;;;8.20;99.90;;;;;;5010604;28;20418;-64
2023/12/24 10:44:39;;;;;;;1.00;0.40;;;9.30;99.90;;;;;;5004146;28;20188;-65
2023/12/24 10:47:04;;;;;;;1.10;0.50;;;9.20;99.90;;;;;;5007127;28;20194;-65
2023/12/24 10:49:30;;;;;;;1.10;0.50;;;8.20;99.90;;;;;;5010923;28;20430;-64
2023/12/24 10:51:57;;;;;;;1.40;0.60;;;8.10;99.90;;;;;;5007005;28;20207;-68
2023/12/24 10:54:24;;;;;;;1.40;0.50;;;8.10;99.90;;;;;;5012511;28;20179;-68
2023/12/24 10:57:08;;;;;;;1.23;0.50;;;8.20;99.90;;;;;;5018088;28;20540;-68
2023/12/24 11:00:06;;;;;;;2.17;0.67;;;8.20;99.90;;;;;;5011472;28;20426;-68
2023/12/24 11:02:33;;;;;;;1.10;0.50;;;8.30;99.90;;;;;;5000108;28;20919;-65
2023/12/24 11:04:59;;;;;;;1.30;0.50;;;8.30;99.90;;;;;;4998901;28;20498;-65
2023/12/24 11:07:33;;;;;;;1.00;0.40;;;8.50;99.90;;;;;;5011364;28;20512;-64
2023/12/24 11:10:06;;;;;;;1.00;0.40;;;9.40;99.90;;;;;;5020016;28;20185;-65
2023/12/24 11:12:33;;;;;;;1.00;0.40;;;8.30;99.90;;;;;;5012286;28;20465;-64
2023/12/24 11:15:00;;;;;;;15.57;0.60;;;8.60;99.90;;;;;;5018612;28;20426;-65
2023/12/24 11:17:35;;;;;;;1.00;0.40;;;8.30;99.90;;;;;;5006143;28;20458;-65
2023/12/24 11:20:26;;;;;;;1.10;0.40;;;8.30;99.90;;;;;;5014255;28;20414;-64
2023/12/24 11:23:18;;;;;;;1.10;0.50;;;8.30;99.90;;;;;;5016442;28;20426;-63
2023/12/24 11:25:45;;;;;;;1.40;0.60;;;8.90;99.90;;;;;;5003710;28;20838;-65
2023/12/24 11:28:12;;;;;;;1.00;0.50;;;8.50;99.90;;;;;;4996464;28;20441;-65
2023/12/24 11:30:50;;;;;;;1.20;0.40;;;8.90;99.90;;;;;;5007458;28;20501;-64
2023/12/24 11:33:44;;;;;;;1.20;0.50;;;8.50;99.90;;;;;;5012143;28;20564;-68
2023/12/24 11:36:10;;;;;;;3.40;1.30;;;8.50;99.90;;;;;;5005953;28;20418;-65
2023/12/24 11:38:36;;;;;;;1.10;0.50;;;9.00;99.90;;;;;;5019236;28;20465;-65
2023/12/24 11:41:05;;;;;;;1.53;0.50;;;8.50;99.90;;;;;;5015614;28;20716;-65
2023/12/24 11:43:31;;;;;;;1.77;0.60;;;8.50;99.90;;;;;;5013437;28;20200;-68
2023/12/24 11:45:57;;;;;;;1.10;0.40;;;8.90;99.90;;;;;;5011969;28;20428;-67
2023/12/24 11:48:28;;;;;;;1.10;0.50;;;8.50;99.90;;;;;;5019256;28;20191;-70
2023/12/24 11:51:07;;;;;;;1.27;0.60;;;8.80;99.90;;;;;;5020343;28;20191;-68
2023/12/24 11:53:35;;;;;;;1.07;0.43;;;8.60;99.90;;;;;;5024747;28;20496;-67
2023/12/24 11:56:17;;;;;;;1.10;0.50;;;8.40;99.90;;;;;;5013860;28;20457;-68
2023/12/24 11:58:57;;;;;;;1.10;0.50;;;8.40;99.90;;;;;;5006315;28;20461;-68
2023/12/24 12:01:25;;;;;;;1.10;0.50;;;8.50;99.90;;;;;;5000149;28;20414;-69
2023/12/24 12:03:58;;;;;;;1.40;0.50;;;9.20;99.90;;;;;;5010399;28;20752;-69
2023/12/24 12:06:28;;;;;;;1.23;0.60;;;8.50;99.90;;;;;;5006792;28;20431;-71
2023/12/24 12:08:54;;;;;;;1.50;0.70;;;8.40;99.90;;;;;;5021360;28;20434;-69
2023/12/24 12:11:19;;;;;;;1.03;0.40;;;8.80;99.90;;;;;;5022919;28;21124;-65
2023/12/24 12:13:45;;;;;;;1.10;0.40;;;8.50;99.90;;;;;;5011892;28;20194;-66
2023/12/24 12:16:11;;;;;;;1.20;0.50;;;8.40;99.90;;;;;;5021673;28;20229;-63
2023/12/24 12:18:36;;;;;;;1.37;0.60;;;8.40;99.90;;;;;;5011783;28;20909;-63
2023/12/24 12:21:02;;;;;;;1.80;0.50;;;8.50;99.90;;;;;;5015090;28;20209;-65
2023/12/24 12:23:28;;;;;;;1.10;0.50;;;8.40;99.90;;;;;;5001890;28;20213;-64
2023/12/24 12:25:53;;;;;;;1.10;0.50;;;9.70;99.90;;;;;;5017460;28;20190;-64
2023/12/24 12:28:19;;;;;;;1.43;0.60;;;9.30;99.90;;;;;;5015764;28;20632;-61
2023/12/24 12:30:45;;;;;;;1.10;0.50;;;8.50;99.90;;;;;;5010092;28;20183;-64
2023/12/24 12:33:11;;;;;;;1.50;0.60;;;9.30;99.90;;;;;;5023827;28;20199;-63
2023/12/24 12:35:37;;;;;;;1.00;0.40;;;8.50;99.90;;;;;;5007272;28;20426;-64
2023/12/24 12:38:03;;;;;;;1.10;0.40;;;9.20;99.90;;;;;;5009943;28;21014;-64
2023/12/24 12:40:29;;;;;;;1.03;0.40;;;8.60;99.90;;;;;;5028085;28;20182;-64
2023/12/24 12:42:55;;;;;;;1.10;0.50;;;9.10;99.90;;;;;;5015275;28;20186;-67
2023/12/24 12:45:21;;;;;;;1.10;0.40;;;8.40;99.90;;;;;;5014530;28;20426;-67
2023/12/24 12:47:46;;;;;;;1.00;0.40;;;9.10;99.90;;;;;;5023440;28;20187;-67
2023/12/24 12:50:12;;;;;;;1.60;0.60;;;8.50;99.90;;;;;;5014180;28;20214;-67
2023/12/24 12:52:38;;;;;;;1.10;0.50;;;8.30;99.90;;;;;;4999097;28;20687;-67
2023/12/24 12:55:06;;;;;;;1.20;0.50;;;8.40;99.90;;;;;;5011951;28;20182;-67
2023/12/24 12:57:36;;;;;;;1.53;0.53;;;8.40;99.90;;;;;;5008312;28;20253;-67